sensor_id;sensor_type;location;lat;lon;timestamp;P1;durP1;ratioP1;P2;durP2;ratioP2
28519;SDS011;15732;48.534;20.382;2022-09-21T00:01:29;4.57;;;1.85;;
28519;SDS011;15732;48.534;20.382;2022-09-21T00:03:58;7.88;;;1.73;;
28519;SDS011;15732;48.534;20.382;2022-09-21T00:06:27;5.95;;;2.35;;
28519;SDS011;15732;48.534;20.382;2022-09-21T00:08:55;4.63;;;1.60;;
28519;SDS011;15732;48.534;20.382;2022-09-21T00:11:26;4.00;;;1.75;;
28519;SDS011;15732;48.534;20.382;2022-09-21T00:14:11;3.97;;;1.20;;
28519;SDS011;15732;48.534;20.382;2022-09-21T00:16:40;2.60;;;1.05;;
28519;SDS011;15732;48.534;20.382;2022-09-21T00:19:08;2.42;;;1.42;;
28519;SDS011;15732;48.534;20.382;2022-09-21T00:21:35;2.92;;;1.27;;
28519;SDS011;15732;48.534;20.382;2022-09-21T00:24:06;2.30;;;1.30;;
28519;SDS011;15732;48.534;20.382;2022-09-21T00:26:33;5.45;;;2.22;;
28519;SDS011;15732;48.534;20.382;2022-09-21T00:29:01;3.58;;;2.00;;
28519;SDS011;15732;48.534;20.382;2022-09-21T00:31:33;4.22;;;1.52;;
28519;SDS011;15732;48.534;20.382;2022-09-21T00:34:00;4.90;;;1.65;;
28519;SDS011;15732;48.534;20.382;2022-09-21T00:36:35;4.07;;;1.95;;
28519;SDS011;15732;48.534;20.382;2022-09-21T00:39:02;3.65;;;1.70;;
28519;SDS011;15732;48.534;20.382;2022-09-21T00:41:31;3.60;;;1.60;;
28519;SDS011;15732;48.534;20.382;2022-09-21T00:44:19;5.15;;;2.13;;
28519;SDS011;15732;48.534;20.382;2022-09-21T00:47:02;2.35;;;1.25;;
28519;SDS011;15732;48.534;20.382;2022-09-21T00:49:36;2.72;;;1.27;;
28519;SDS011;15732;48.534;20.382;2022-09-21T00:52:10;5.07;;;1.95;;
28519;SDS011;15732;48.534;20.382;2022-09-21T00:54:44;3.85;;;1.40;;
28519;SDS011;15732;48.534;20.382;2022-09-21T00:57:22;4.15;;;1.70;;
28519;SDS011;15732;48.534;20.382;2022-09-21T00:59:50;1.58;;;0.90;;
28519;SDS011;15732;48.534;20.382;2022-09-21T01:02:20;2.60;;;1.23;;
28519;SDS011;15732;48.534;20.382;2022-09-21T01:04:52;2.22;;;1.20;;
28519;SDS011;15732;48.534;20.382;2022-09-21T01:07:26;2.50;;;1.08;;
28519;SDS011;15732;48.534;20.382;2022-09-21T01:09:58;1.83;;;1.08;;
28519;SDS011;15732;48.534;20.382;2022-09-21T01:15:32;3.80;;;1.75;;
28519;SDS011;15732;48.534;20.382;2022-09-21T01:29:18;2.08;;;0.80;;
28519;SDS011;15732;48.534;20.382;2022-09-21T01:31:53;3.08;;;1.35;;
28519;SDS011;15732;48.534;20.382;2022-09-21T01:34:40;5.72;;;1.38;;
28519;SDS011;15732;48.534;20.382;2022-09-21T01:37:20;2.83;;;1.67;;
28519;SDS011;15732;48.534;20.382;2022-09-21T01:39:58;4.13;;;1.30;;
28519;SDS011;15732;48.534;20.382;2022-09-21T01:42:30;2.25;;;1.00;;
28519;SDS011;15732;48.534;20.382;2022-09-21T01:44:59;3.88;;;1.27;;
28519;SDS011;15732;48.534;20.382;2022-09-21T01:47:32;2.60;;;1.40;;
28519;SDS011;15732;48.534;20.382;2022-09-21T01:50:02;2.30;;;1.05;;
28519;SDS011;15732;48.534;20.382;2022-09-21T01:52:33;2.03;;;1.05;;
28519;SDS011;15732;48.534;20.382;2022-09-21T01:55:09;1.63;;;0.80;;
28519;SDS011;15732;48.534;20.382;2022-09-21T01:58:09;3.47;;;1.17;;
28519;SDS011;15732;48.534;20.382;2022-09-21T02:00:43;3.10;;;1.08;;
28519;SDS011;15732;48.534;20.382;2022-09-21T02:03:56;1.00;;;0.63;;
28519;SDS011;15732;48.534;20.382;2022-09-21T02:06:18;0.80;;;0.57;;
28519;SDS011;15732;48.534;20.382;2022-09-21T02:08:45;1.55;;;0.88;;
28519;SDS011;15732;48.534;20.382;2022-09-21T02:11:12;1.48;;;0.98;;
28519;SDS011;15732;48.534;20.382;2022-09-21T02:13:42;1.70;;;0.60;;
28519;SDS011;15732;48.534;20.382;2022-09-21T02:19:07;2.88;;;0.88;;
28519;SDS011;15732;48.534;20.382;2022-09-21T02:22:06;2.17;;;0.90;;
28519;SDS011;15732;48.534;20.382;2022-09-21T02:24:45;2.72;;;1.08;;
28519;SDS011;15732;48.534;20.382;2022-09-21T02:27:35;2.90;;;1.02;;
28519;SDS011;15732;48.534;20.382;2022-09-21T02:30:33;2.15;;;1.17;;
28519;SDS011;15732;48.534;20.382;2022-09-21T02:33:12;1.45;;;0.70;;
28519;SDS011;15732;48.534;20.382;2022-09-21T02:36:10;0.60;;;0.40;;
28519;SDS011;15732;48.534;20.382;2022-09-21T02:39:09;2.13;;;0.85;;
28519;SDS011;15732;48.534;20.382;2022-09-21T02:42:06;2.30;;;0.90;;
28519;SDS011;15732;48.534;20.382;2022-09-21T02:44:37;1.33;;;0.60;;
28519;SDS011;15732;48.534;20.382;2022-09-21T02:47:17;0.45;;;0.40;;
28519;SDS011;15732;48.534;20.382;2022-09-21T02:50:08;1.45;;;0.75;;
28519;SDS011;15732;48.534;20.382;2022-09-21T02:52:40;2.28;;;1.00;;
28519;SDS011;15732;48.534;20.382;2022-09-21T02:55:09;0.77;;;0.55;;
28519;SDS011;15732;48.534;20.382;2022-09-21T02:57:41;1.67;;;0.80;;
28519;SDS011;15732;48.534;20.382;2022-09-21T03:00:09;1.45;;;0.77;;
28519;SDS011;15732;48.534;20.382;2022-09-21T03:02:40;1.65;;;0.60;;
28519;SDS011;15732;48.534;20.382;2022-09-21T03:05:13;1.90;;;1.10;;
28519;SDS011;15732;48.534;20.382;2022-09-21T03:07:41;1.10;;;0.50;;
28519;SDS011;15732;48.534;20.382;2022-09-21T03:10:08;2.35;;;1.10;;
28519;SDS011;15732;48.534;20.382;2022-09-21T03:12:36;1.98;;;1.02;;
28519;SDS011;15732;48.534;20.382;2022-09-21T03:15:03;2.22;;;0.60;;
28519;SDS011;15732;48.534;20.382;2022-09-21T03:17:32;2.22;;;1.10;;
28519;SDS011;15732;48.534;20.382;2022-09-21T03:20:03;2.20;;;1.00;;
28519;SDS011;15732;48.534;20.382;2022-09-21T03:22:33;1.58;;;0.77;;
28519;SDS011;15732;48.534;20.382;2022-09-21T03:25:00;1.20;;;0.70;;
28519;SDS011;15732;48.534;20.382;2022-09-21T03:27:28;2.22;;;1.13;;
28519;SDS011;15732;48.534;20.382;2022-09-21T03:29:55;2.90;;;0.80;;
28519;SDS011;15732;48.534;20.382;2022-09-21T03:32:22;1.27;;;0.80;;
28519;SDS011;15732;48.534;20.382;2022-09-21T03:34:51;2.25;;;0.80;;
28519;SDS011;15732;48.534;20.382;2022-09-21T03:37:19;1.33;;;0.63;;
28519;SDS011;15732;48.534;20.382;2022-09-21T03:39:46;0.55;;;0.50;;
28519;SDS011;15732;48.534;20.382;2022-09-21T03:42:14;2.38;;;1.02;;
28519;SDS011;15732;48.534;20.382;2022-09-21T03:44:41;1.30;;;0.55;;
28519;SDS011;15732;48.534;20.382;2022-09-21T03:47:09;1.63;;;0.50;;
28519;SDS011;15732;48.534;20.382;2022-09-21T03:49:36;0.63;;;0.55;;
28519;SDS011;15732;48.534;20.382;2022-09-21T03:52:04;12.10;;;1.63;;
28519;SDS011;15732;48.534;20.382;2022-09-21T03:54:31;1.50;;;0.82;;
28519;SDS011;15732;48.534;20.382;2022-09-21T03:56:59;1.65;;;0.60;;
28519;SDS011;15732;48.534;20.382;2022-09-21T03:59:26;1.73;;;0.70;;
28519;SDS011;15732;48.534;20.382;2022-09-21T04:01:54;1.20;;;0.82;;
28519;SDS011;15732;48.534;20.382;2022-09-21T04:04:21;1.33;;;0.90;;
28519;SDS011;15732;48.534;20.382;2022-09-21T04:06:49;2.08;;;0.85;;
28519;SDS011;15732;48.534;20.382;2022-09-21T04:09:16;1.27;;;0.70;;
28519;SDS011;15732;48.534;20.382;2022-09-21T04:11:44;1.67;;;0.82;;
28519;SDS011;15732;48.534;20.382;2022-09-21T04:14:11;0.88;;;0.75;;
28519;SDS011;15732;48.534;20.382;2022-09-21T04:16:38;0.60;;;0.50;;
28519;SDS011;15732;48.534;20.382;2022-09-21T04:19:05;2.20;;;1.08;;
28519;SDS011;15732;48.534;20.382;2022-09-21T04:21:33;1.80;;;0.75;;
28519;SDS011;15732;48.534;20.382;2022-09-21T04:24:00;1.25;;;0.70;;
28519;SDS011;15732;48.534;20.382;2022-09-21T04:26:30;2.25;;;0.60;;
28519;SDS011;15732;48.534;20.382;2022-09-21T04:28:59;1.48;;;0.40;;
28519;SDS011;15732;48.534;20.382;2022-09-21T04:31:30;3.22;;;0.77;;
28519;SDS011;15732;48.534;20.382;2022-09-21T04:33:58;1.23;;;0.60;;
28519;SDS011;15732;48.534;20.382;2022-09-21T04:36:29;2.42;;;0.77;;
28519;SDS011;15732;48.534;20.382;2022-09-21T04:38:59;8.65;;;0.80;;
28519;SDS011;15732;48.534;20.382;2022-09-21T04:41:25;3.22;;;1.10;;
28519;SDS011;15732;48.534;20.382;2022-09-21T04:43:53;2.35;;;0.70;;
28519;SDS011;15732;48.534;20.382;2022-09-21T04:46:20;4.07;;;1.40;;
28519;SDS011;15732;48.534;20.382;2022-09-21T04:48:48;6.40;;;1.25;;
28519;SDS011;15732;48.534;20.382;2022-09-21T04:51:16;1.48;;;0.60;;
28519;SDS011;15732;48.534;20.382;2022-09-21T04:53:43;2.25;;;0.70;;
28519;SDS011;15732;48.534;20.382;2022-09-21T04:56:14;1.77;;;0.82;;
28519;SDS011;15732;48.534;20.382;2022-09-21T04:58:42;2.97;;;0.65;;
28519;SDS011;15732;48.534;20.382;2022-09-21T05:01:09;1.30;;;0.73;;
28519;SDS011;15732;48.534;20.382;2022-09-21T05:03:36;0.75;;;0.43;;
28519;SDS011;15732;48.534;20.382;2022-09-21T05:06:07;0.50;;;0.50;;
28519;SDS011;15732;48.534;20.382;2022-09-21T05:08:40;1.63;;;0.57;;
28519;SDS011;15732;48.534;20.382;2022-09-21T05:11:26;1.13;;;0.47;;
28519;SDS011;15732;48.534;20.382;2022-09-21T05:13:54;0.68;;;0.60;;
28519;SDS011;15732;48.534;20.382;2022-09-21T05:16:21;0.85;;;0.60;;
28519;SDS011;15732;48.534;20.382;2022-09-21T05:18:51;1.55;;;0.82;;
28519;SDS011;15732;48.534;20.382;2022-09-21T05:21:19;1.38;;;0.65;;
28519;SDS011;15732;48.534;20.382;2022-09-21T05:23:51;6.78;;;1.48;;
28519;SDS011;15732;48.534;20.382;2022-09-21T05:26:18;2.63;;;1.35;;
28519;SDS011;15732;48.534;20.382;2022-09-21T05:28:49;3.38;;;1.42;;
28519;SDS011;15732;48.534;20.382;2022-09-21T05:39:02;1.77;;;0.63;;
28519;SDS011;15732;48.534;20.382;2022-09-21T05:41:29;2.30;;;0.70;;
28519;SDS011;15732;48.534;20.382;2022-09-21T05:43:58;3.65;;;1.25;;
28519;SDS011;15732;48.534;20.382;2022-09-21T05:49:06;2.35;;;1.13;;
28519;SDS011;15732;48.534;20.382;2022-09-21T06:05:50;1.33;;;0.57;;
28519;SDS011;15732;48.534;20.382;2022-09-21T06:08:18;2.33;;;1.33;;
28519;SDS011;15732;48.534;20.382;2022-09-21T06:10:45;2.33;;;1.10;;
28519;SDS011;15732;48.534;20.382;2022-09-21T06:13:13;2.88;;;1.15;;
28519;SDS011;15732;48.534;20.382;2022-09-21T06:15:40;4.13;;;1.98;;
28519;SDS011;15732;48.534;20.382;2022-09-21T06:18:08;2.33;;;1.13;;
28519;SDS011;15732;48.534;20.382;2022-09-21T06:20:35;3.87;;;1.37;;
28519;SDS011;15732;48.534;20.382;2022-09-21T06:23:07;4.88;;;1.70;;
28519;SDS011;15732;48.534;20.382;2022-09-21T06:25:39;2.60;;;1.20;;
28519;SDS011;15732;48.534;20.382;2022-09-21T06:28:10;2.28;;;1.02;;
28519;SDS011;15732;48.534;20.382;2022-09-21T06:30:38;2.30;;;1.25;;
28519;SDS011;15732;48.534;20.382;2022-09-21T06:33:10;2.53;;;0.95;;
28519;SDS011;15732;48.534;20.382;2022-09-21T06:35:54;3.05;;;1.55;;
28519;SDS011;15732;48.534;20.382;2022-09-21T06:38:25;2.30;;;1.02;;
28519;SDS011;15732;48.534;20.382;2022-09-21T06:40:53;4.40;;;1.27;;
28519;SDS011;15732;48.534;20.382;2022-09-21T06:43:20;2.60;;;1.40;;
28519;SDS011;15732;48.534;20.382;2022-09-21T06:45:52;3.10;;;1.38;;
28519;SDS011;15732;48.534;20.382;2022-09-21T06:48:20;3.75;;;1.48;;
28519;SDS011;15732;48.534;20.382;2022-09-21T06:50:48;2.67;;;1.10;;
28519;SDS011;15732;48.534;20.382;2022-09-21T06:53:15;1.52;;;0.93;;
28519;SDS011;15732;48.534;20.382;2022-09-21T06:55:43;2.20;;;1.10;;
28519;SDS011;15732;48.534;20.382;2022-09-21T06:58:14;3.80;;;1.73;;
28519;SDS011;15732;48.534;20.382;2022-09-21T07:00:42;9.40;;;1.90;;
28519;SDS011;15732;48.534;20.382;2022-09-21T07:03:13;2.55;;;1.23;;
28519;SDS011;15732;48.534;20.382;2022-09-21T07:05:43;5.25;;;1.52;;
28519;SDS011;15732;48.534;20.382;2022-09-21T07:08:11;2.10;;;0.95;;
28519;SDS011;15732;48.534;20.382;2022-09-21T07:10:42;1.67;;;0.80;;
28519;SDS011;15732;48.534;20.382;2022-09-21T07:13:10;3.08;;;1.35;;
28519;SDS011;15732;48.534;20.382;2022-09-21T07:15:37;2.92;;;1.23;;
28519;SDS011;15732;48.534;20.382;2022-09-21T07:18:09;4.57;;;1.60;;
28519;SDS011;15732;48.534;20.382;2022-09-21T07:20:38;2.70;;;1.33;;
28519;SDS011;15732;48.534;20.382;2022-09-21T07:23:12;10.52;;;1.23;;
28519;SDS011;15732;48.534;20.382;2022-09-21T07:25:41;2.22;;;1.00;;
28519;SDS011;15732;48.534;20.382;2022-09-21T07:28:09;1.77;;;1.08;;
28519;SDS011;15732;48.534;20.382;2022-09-21T07:30:38;1.10;;;0.73;;
28519;SDS011;15732;48.534;20.382;2022-09-21T07:33:05;3.13;;;1.30;;
28519;SDS011;15732;48.534;20.382;2022-09-21T07:35:33;3.83;;;1.55;;
28519;SDS011;15732;48.534;20.382;2022-09-21T07:38:06;2.13;;;1.10;;
28519;SDS011;15732;48.534;20.382;2022-09-21T07:40:33;3.50;;;1.50;;
28519;SDS011;15732;48.534;20.382;2022-09-21T07:43:00;3.50;;;1.92;;
28519;SDS011;15732;48.534;20.382;2022-09-21T07:45:28;4.15;;;1.65;;
28519;SDS011;15732;48.534;20.382;2022-09-21T07:48:02;3.45;;;1.77;;
28519;SDS011;15732;48.534;20.382;2022-09-21T07:50:30;2.72;;;1.23;;
28519;SDS011;15732;48.534;20.382;2022-09-21T07:53:17;2.30;;;1.23;;
28519;SDS011;15732;48.534;20.382;2022-09-21T07:55:45;2.78;;;1.02;;
28519;SDS011;15732;48.534;20.382;2022-09-21T07:58:16;2.40;;;1.13;;
28519;SDS011;15732;48.534;20.382;2022-09-21T08:01:05;2.47;;;0.95;;
28519;SDS011;15732;48.534;20.382;2022-09-21T08:03:33;3.47;;;1.38;;
28519;SDS011;15732;48.534;20.382;2022-09-21T08:06:00;3.28;;;1.10;;
28519;SDS011;15732;48.534;20.382;2022-09-21T08:08:29;5.78;;;1.60;;
28519;SDS011;15732;48.534;20.382;2022-09-21T08:11:01;4.43;;;1.40;;
28519;SDS011;15732;48.534;20.382;2022-09-21T08:13:31;2.80;;;1.17;;
28519;SDS011;15732;48.534;20.382;2022-09-21T08:16:01;2.35;;;1.27;;
28519;SDS011;15732;48.534;20.382;2022-09-21T08:18:29;3.22;;;1.48;;
28519;SDS011;15732;48.534;20.382;2022-09-21T08:20:56;4.63;;;1.95;;
28519;SDS011;15732;48.534;20.382;2022-09-21T08:23:25;4.53;;;1.70;;
28519;SDS011;15732;48.534;20.382;2022-09-21T08:28:28;6.35;;;2.42;;
28519;SDS011;15732;48.534;20.382;2022-09-21T08:31:02;2.95;;;1.58;;
28519;SDS011;15732;48.534;20.382;2022-09-21T08:33:30;2.65;;;1.23;;
28519;SDS011;15732;48.534;20.382;2022-09-21T08:35:58;3.08;;;1.42;;
28519;SDS011;15732;48.534;20.382;2022-09-21T08:38:30;2.60;;;1.40;;
28519;SDS011;15732;48.534;20.382;2022-09-21T08:41:00;3.97;;;1.92;;
28519;SDS011;15732;48.534;20.382;2022-09-21T08:46:03;3.58;;;1.70;;
28519;SDS011;15732;48.534;20.382;2022-09-21T08:48:35;5.38;;;1.52;;
28519;SDS011;15732;48.534;20.382;2022-09-21T08:51:08;2.80;;;1.55;;
28519;SDS011;15732;48.534;20.382;2022-09-21T08:53:45;4.60;;;2.25;;
28519;SDS011;15732;48.534;20.382;2022-09-21T08:56:19;4.03;;;1.73;;
28519;SDS011;15732;48.534;20.382;2022-09-21T08:58:49;3.95;;;1.70;;
28519;SDS011;15732;48.534;20.382;2022-09-21T09:06:58;4.70;;;1.70;;
28519;SDS011;15732;48.534;20.382;2022-09-21T09:12:57;4.63;;;1.88;;
28519;SDS011;15732;48.534;20.382;2022-09-21T09:15:32;4.97;;;1.50;;
28519;SDS011;15732;48.534;20.382;2022-09-21T09:20:55;3.63;;;1.98;;
28519;SDS011;15732;48.534;20.382;2022-09-21T09:23:27;3.72;;;1.65;;
28519;SDS011;15732;48.534;20.382;2022-09-21T09:26:24;2.70;;;1.33;;
28519;SDS011;15732;48.534;20.382;2022-09-21T09:29:06;13.65;;;2.10;;
28519;SDS011;15732;48.534;20.382;2022-09-21T09:31:45;4.05;;;1.85;;
28519;SDS011;15732;48.534;20.382;2022-09-21T09:34:20;3.42;;;1.80;;
28519;SDS011;15732;48.534;20.382;2022-09-21T09:37:04;3.57;;;1.10;;
28519;SDS011;15732;48.534;20.382;2022-09-21T09:39:46;6.53;;;2.15;;
28519;SDS011;15732;48.534;20.382;2022-09-21T09:45:01;3.03;;;1.10;;
28519;SDS011;15732;48.534;20.382;2022-09-21T09:50:10;6.22;;;2.28;;
28519;SDS011;15732;48.534;20.382;2022-09-21T09:52:39;6.40;;;2.83;;
28519;SDS011;15732;48.534;20.382;2022-09-21T09:55:25;6.88;;;2.17;;
28519;SDS011;15732;48.534;20.382;2022-09-21T09:58:00;5.05;;;2.15;;
28519;SDS011;15732;48.534;20.382;2022-09-21T10:00:31;3.28;;;1.63;;
28519;SDS011;15732;48.534;20.382;2022-09-21T10:02:59;3.90;;;1.67;;
28519;SDS011;15732;48.534;20.382;2022-09-21T10:08:08;5.93;;;1.33;;
28519;SDS011;15732;48.534;20.382;2022-09-21T10:10:54;8.13;;;1.00;;
28519;SDS011;15732;48.534;20.382;2022-09-21T10:13:31;2.83;;;1.20;;
28519;SDS011;15732;48.534;20.382;2022-09-21T10:23:52;2.92;;;1.58;;
28519;SDS011;15732;48.534;20.382;2022-09-21T10:26:41;5.80;;;1.30;;
28519;SDS011;15732;48.534;20.382;2022-09-21T10:29:29;3.28;;;1.70;;
28519;SDS011;15732;48.534;20.382;2022-09-21T10:34:38;3.55;;;1.17;;
28519;SDS011;15732;48.534;20.382;2022-09-21T10:37:24;4.57;;;1.90;;
28519;SDS011;15732;48.534;20.382;2022-09-21T10:39:53;2.08;;;0.98;;
28519;SDS011;15732;48.534;20.382;2022-09-21T10:42:22;2.67;;;1.08;;
28519;SDS011;15732;48.534;20.382;2022-09-21T10:45:04;2.97;;;1.15;;
28519;SDS011;15732;48.534;20.382;2022-09-21T10:48:05;1.90;;;0.98;;
28519;SDS011;15732;48.534;20.382;2022-09-21T10:50:43;1.20;;;0.70;;
28519;SDS011;15732;48.534;20.382;2022-09-21T10:53:15;2.92;;;1.55;;
28519;SDS011;15732;48.534;20.382;2022-09-21T10:56:14;7.20;;;1.15;;
28519;SDS011;15732;48.534;20.382;2022-09-21T10:59:09;0.98;;;0.60;;
28519;SDS011;15732;48.534;20.382;2022-09-21T11:01:42;2.05;;;0.50;;
28519;SDS011;15732;48.534;20.382;2022-09-21T11:04:30;1.17;;;0.52;;
28519;SDS011;15732;48.534;20.382;2022-09-21T11:21:16;4.07;;;1.77;;
28519;SDS011;15732;48.534;20.382;2022-09-21T11:24:16;3.90;;;0.70;;
28519;SDS011;15732;48.534;20.382;2022-09-21T11:26:52;1.65;;;0.77;;
28519;SDS011;15732;48.534;20.382;2022-09-21T11:29:36;1.92;;;0.65;;
28519;SDS011;15732;48.534;20.382;2022-09-21T11:32:11;1.77;;;0.77;;
28519;SDS011;15732;48.534;20.382;2022-09-21T11:38:10;1.77;;;0.90;;
28519;SDS011;15732;48.534;20.382;2022-09-21T11:43:23;0.65;;;0.50;;
28519;SDS011;15732;48.534;20.382;2022-09-21T11:46:04;1.13;;;0.40;;
28519;SDS011;15732;48.534;20.382;2022-09-21T12:04:52;1.00;;;0.50;;
28519;SDS011;15732;48.534;20.382;2022-09-21T12:10:36;2.13;;;0.73;;
28519;SDS011;15732;48.534;20.382;2022-09-21T12:18:28;1.13;;;0.47;;
28519;SDS011;15732;48.534;20.382;2022-09-21T12:21:21;0.93;;;0.60;;
28519;SDS011;15732;48.534;20.382;2022-09-21T12:23:55;2.17;;;0.60;;
28519;SDS011;15732;48.534;20.382;2022-09-21T12:26:48;0.45;;;0.30;;
28519;SDS011;15732;48.534;20.382;2022-09-21T12:32:01;0.57;;;0.20;;
28519;SDS011;15732;48.534;20.382;2022-09-21T12:34:50;0.82;;;0.47;;
28519;SDS011;15732;48.534;20.382;2022-09-21T12:37:25;0.80;;;0.50;;
28519;SDS011;15732;48.534;20.382;2022-09-21T12:45:40;0.75;;;0.38;;
28519;SDS011;15732;48.534;20.382;2022-09-21T12:50:58;2.10;;;0.50;;
28519;SDS011;15732;48.534;20.382;2022-09-21T12:53:54;1.42;;;0.60;;
28519;SDS011;15732;48.534;20.382;2022-09-21T13:02:25;0.85;;;0.50;;
28519;SDS011;15732;48.534;20.382;2022-09-21T13:05:09;1.45;;;0.75;;
28519;SDS011;15732;48.534;20.382;2022-09-21T13:10:37;0.80;;;0.30;;
28519;SDS011;15732;48.534;20.382;2022-09-21T13:13:25;1.75;;;0.60;;
28519;SDS011;15732;48.534;20.382;2022-09-21T13:16:37;0.32;;;0.30;;
28519;SDS011;15732;48.534;20.382;2022-09-21T13:21:40;1.73;;;0.77;;
28519;SDS011;15732;48.534;20.382;2022-09-21T13:26:55;1.40;;;0.80;;
28519;SDS011;15732;48.534;20.382;2022-09-21T13:29:26;2.00;;;0.70;;
28519;SDS011;15732;48.534;20.382;2022-09-21T13:31:59;0.93;;;0.65;;
28519;SDS011;15732;48.534;20.382;2022-09-21T13:34:45;0.75;;;0.50;;
28519;SDS011;15732;48.534;20.382;2022-09-21T13:42:46;1.73;;;0.95;;
28519;SDS011;15732;48.534;20.382;2022-09-21T13:47:44;1.50;;;0.60;;
28519;SDS011;15732;48.534;20.382;2022-09-21T13:52:44;13.93;;;7.47;;
28519;SDS011;15732;48.534;20.382;2022-09-21T13:57:49;40.05;;;18.70;;
28519;SDS011;15732;48.534;20.382;2022-09-21T14:08:00;29.33;;;9.43;;
28519;SDS011;15732;48.534;20.382;2022-09-21T14:10:31;21.17;;;6.13;;
28519;SDS011;15732;48.534;20.382;2022-09-21T14:13:03;26.42;;;8.73;;
28519;SDS011;15732;48.534;20.382;2022-09-21T14:15:48;31.70;;;8.90;;
28519;SDS011;15732;48.534;20.382;2022-09-21T14:18:21;17.40;;;6.55;;
28519;SDS011;15732;48.534;20.382;2022-09-21T14:29:28;14.43;;;4.32;;
28519;SDS011;15732;48.534;20.382;2022-09-21T14:32:19;6.55;;;2.60;;
28519;SDS011;15732;48.534;20.382;2022-09-21T14:34:49;6.68;;;1.00;;
28519;SDS011;15732;48.534;20.382;2022-09-21T14:39:59;7.10;;;2.33;;
28519;SDS011;15732;48.534;20.382;2022-09-21T14:42:30;6.30;;;2.65;;
28519;SDS011;15732;48.534;20.382;2022-09-21T14:44:58;0.98;;;0.47;;
28519;SDS011;15732;48.534;20.382;2022-09-21T15:07:10;0.95;;;0.50;;
28519;SDS011;15732;48.534;20.382;2022-09-21T15:13:10;0.65;;;0.22;;
28519;SDS011;15732;48.534;20.382;2022-09-21T15:19:27;0.47;;;0.40;;
28519;SDS011;15732;48.534;20.382;2022-09-21T15:24:29;1.17;;;0.70;;
28519;SDS011;15732;48.534;20.382;2022-09-21T15:27:03;1.10;;;0.73;;
28519;SDS011;15732;48.534;20.382;2022-09-21T15:29:31;4.32;;;0.70;;
28519;SDS011;15732;48.534;20.382;2022-09-21T15:31:59;1.10;;;0.68;;
28519;SDS011;15732;48.534;20.382;2022-09-21T15:34:27;2.33;;;0.90;;
28519;SDS011;15732;48.534;20.382;2022-09-21T15:37:04;1.42;;;0.70;;
28519;SDS011;15732;48.534;20.382;2022-09-21T15:39:40;3.75;;;1.77;;
28519;SDS011;15732;48.534;20.382;2022-09-21T15:44:35;3.15;;;1.40;;
28519;SDS011;15732;48.534;20.382;2022-09-21T15:47:03;4.20;;;1.05;;
28519;SDS011;15732;48.534;20.382;2022-09-21T15:49:34;1.90;;;0.93;;
28519;SDS011;15732;48.534;20.382;2022-09-21T15:52:09;3.92;;;1.35;;
28519;SDS011;15732;48.534;20.382;2022-09-21T15:54:45;3.60;;;1.10;;
28519;SDS011;15732;48.534;20.382;2022-09-21T16:00:04;1.38;;;0.77;;
28519;SDS011;15732;48.534;20.382;2022-09-21T16:05:30;3.03;;;1.17;;
28519;SDS011;15732;48.534;20.382;2022-09-21T16:10:54;3.05;;;1.33;;
28519;SDS011;15732;48.534;20.382;2022-09-21T16:13:38;7.20;;;2.00;;
28519;SDS011;15732;48.534;20.382;2022-09-21T16:16:24;4.00;;;1.88;;
28519;SDS011;15732;48.534;20.382;2022-09-21T16:18:52;3.42;;;1.33;;
28519;SDS011;15732;48.534;20.382;2022-09-21T16:21:25;5.50;;;1.65;;
28519;SDS011;15732;48.534;20.382;2022-09-21T16:24:09;3.63;;;1.60;;
28519;SDS011;15732;48.534;20.382;2022-09-21T16:26:54;2.67;;;1.25;;
28519;SDS011;15732;48.534;20.382;2022-09-21T16:29:36;5.15;;;1.15;;
28519;SDS011;15732;48.534;20.382;2022-09-21T16:34:46;2.40;;;1.10;;
28519;SDS011;15732;48.534;20.382;2022-09-21T16:39:52;2.25;;;1.10;;
28519;SDS011;15732;48.534;20.382;2022-09-21T16:42:21;1.63;;;1.00;;
28519;SDS011;15732;48.534;20.382;2022-09-21T16:44:48;4.18;;;1.65;;
28519;SDS011;15732;48.534;20.382;2022-09-21T16:47:19;7.90;;;2.58;;
28519;SDS011;15732;48.534;20.382;2022-09-21T16:49:50;7.05;;;3.70;;
28519;SDS011;15732;48.534;20.382;2022-09-21T16:52:22;8.00;;;3.53;;
28519;SDS011;15732;48.534;20.382;2022-09-21T16:54:49;8.77;;;3.45;;
28519;SDS011;15732;48.534;20.382;2022-09-21T16:57:16;12.15;;;4.93;;
28519;SDS011;15732;48.534;20.382;2022-09-21T16:59:44;20.97;;;6.73;;
28519;SDS011;15732;48.534;20.382;2022-09-21T17:02:12;19.48;;;9.43;;
28519;SDS011;15732;48.534;20.382;2022-09-21T17:04:40;15.75;;;7.13;;
28519;SDS011;15732;48.534;20.382;2022-09-21T17:07:11;14.88;;;6.63;;
28519;SDS011;15732;48.534;20.382;2022-09-21T17:12:10;13.25;;;7.13;;
28519;SDS011;15732;48.534;20.382;2022-09-21T17:14:39;17.45;;;8.00;;
28519;SDS011;15732;48.534;20.382;2022-09-21T17:19:42;1.98;;;1.08;;
28519;SDS011;15732;48.534;20.382;2022-09-21T17:22:11;2.05;;;0.95;;
28519;SDS011;15732;48.534;20.382;2022-09-21T17:24:45;2.20;;;1.10;;
28519;SDS011;15732;48.534;20.382;2022-09-21T17:27:13;4.05;;;1.48;;
28519;SDS011;15732;48.534;20.382;2022-09-21T17:29:43;2.35;;;1.27;;
28519;SDS011;15732;48.534;20.382;2022-09-21T17:32:14;3.80;;;1.30;;
28519;SDS011;15732;48.534;20.382;2022-09-21T17:37:42;8.23;;;2.70;;
28519;SDS011;15732;48.534;20.382;2022-09-21T17:40:09;15.13;;;5.05;;
28519;SDS011;15732;48.534;20.382;2022-09-21T17:42:40;19.95;;;7.65;;
28519;SDS011;15732;48.534;20.382;2022-09-21T17:47:43;15.38;;;6.35;;
28519;SDS011;15732;48.534;20.382;2022-09-21T17:52:38;32.20;;;12.65;;
28519;SDS011;15732;48.534;20.382;2022-09-21T17:55:25;24.23;;;11.07;;
28519;SDS011;15732;48.534;20.382;2022-09-21T18:01:02;15.65;;;6.70;;
28519;SDS011;15732;48.534;20.382;2022-09-21T18:03:43;12.88;;;5.45;;
28519;SDS011;15732;48.534;20.382;2022-09-21T18:06:11;14.70;;;4.55;;
28519;SDS011;15732;48.534;20.382;2022-09-21T18:08:41;12.68;;;5.82;;
28519;SDS011;15732;48.534;20.382;2022-09-21T18:13:56;12.57;;;5.38;;
28519;SDS011;15732;48.534;20.382;2022-09-21T18:25:11;9.65;;;3.83;;
28519;SDS011;15732;48.534;20.382;2022-09-21T18:27:41;17.33;;;5.07;;
28519;SDS011;15732;48.534;20.382;2022-09-21T18:30:12;10.32;;;4.32;;
28519;SDS011;15732;48.534;20.382;2022-09-21T18:32:48;11.90;;;5.63;;
28519;SDS011;15732;48.534;20.382;2022-09-21T18:38:34;19.30;;;7.65;;
28519;SDS011;15732;48.534;20.382;2022-09-21T18:41:30;14.65;;;7.10;;
28519;SDS011;15732;48.534;20.382;2022-09-21T18:44:06;12.57;;;4.78;;
28519;SDS011;15732;48.534;20.382;2022-09-21T18:46:52;7.23;;;2.73;;
28519;SDS011;15732;48.534;20.382;2022-09-21T18:52:19;15.73;;;3.85;;
28519;SDS011;15732;48.534;20.382;2022-09-21T18:57:54;11.07;;;4.03;;
28519;SDS011;15732;48.534;20.382;2022-09-21T19:00:23;4.82;;;2.13;;
28519;SDS011;15732;48.534;20.382;2022-09-21T19:02:59;6.88;;;2.90;;
28519;SDS011;15732;48.534;20.382;2022-09-21T19:05:29;9.52;;;4.07;;
28519;SDS011;15732;48.534;20.382;2022-09-21T19:17:08;4.57;;;1.73;;
28519;SDS011;15732;48.534;20.382;2022-09-21T19:22:53;4.70;;;2.40;;
28519;SDS011;15732;48.534;20.382;2022-09-21T19:25:44;7.13;;;2.92;;
28519;SDS011;15732;48.534;20.382;2022-09-21T19:31:03;5.57;;;2.35;;
28519;SDS011;15732;48.534;20.382;2022-09-21T19:33:36;4.70;;;2.35;;
28519;SDS011;15732;48.534;20.382;2022-09-21T19:36:03;6.80;;;2.60;;
28519;SDS011;15732;48.534;20.382;2022-09-21T19:38:34;5.72;;;2.45;;
28519;SDS011;15732;48.534;20.382;2022-09-21T19:41:11;8.68;;;2.20;;
28519;SDS011;15732;48.534;20.382;2022-09-21T19:49:37;11.57;;;5.55;;
28519;SDS011;15732;48.534;20.382;2022-09-21T19:52:14;7.47;;;3.00;;